sensor_id;sensor_type;location;lat;lon;timestamp;pressure;altitude;pressure_sealevel;temperature;humidity
65756;BME280;69208;47.502;18.940;2023-04-27T00:00:54;98268.19;;;4.15;64.84
65756;BME280;69208;47.502;18.940;2023-04-27T00:01:57;98269.25;;;4.19;64.83
65756;BME280;69208;47.502;18.940;2023-04-27T00:03:00;98270.75;;;4.10;64.91
65756;BME280;69208;47.502;18.940;2023-04-27T00:04:07;98262.31;;;4.25;65.50
65756;BME280;69208;47.502;18.940;2023-04-27T00:05:11;98261.75;;;4.18;65.96
65756;BME280;69208;47.502;18.940;2023-04-27T00:06:15;98269.19;;;4.09;65.46
65756;BME280;69208;47.502;18.940;2023-04-27T00:07:18;98264.06;;;4.14;65.54
65756;BME280;69208;47.502;18.940;2023-04-27T00:08:20;98264.94;;;4.30;65.64
65756;BME280;69208;47.502;18.940;2023-04-27T00:09:23;98265.47;;;4.32;65.75
65756;BME280;69208;47.502;18.940;2023-04-27T00:10:26;98259.72;;;4.25;66.22
65756;BME280;69208;47.502;18.940;2023-04-27T00:11:29;98267.75;;;4.23;66.39
65756;BME280;69208;47.502;18.940;2023-04-27T00:12:32;98260.78;;;4.29;66.06
65756;BME280;69208;47.502;18.940;2023-04-27T00:13:35;98269.38;;;4.34;65.88
65756;BME280;69208;47.502;18.940;2023-04-27T00:14:38;98272.63;;;4.20;66.22
65756;BME280;69208;47.502;18.940;2023-04-27T00:15:40;98275.38;;;4.08;66.10
65756;BME280;69208;47.502;18.940;2023-04-27T00:16:43;98271.66;;;3.99;66.18
65756;BME280;69208;47.502;18.940;2023-04-27T00:17:46;98270.84;;;3.93;66.08
65756;BME280;69208;47.502;18.940;2023-04-27T00:18:49;98273.19;;;3.95;66.31
65756;BME280;69208;47.502;18.940;2023-04-27T00:19:52;98274.53;;;3.97;66.16
65756;BME280;69208;47.502;18.940;2023-04-27T00:20:56;98277.84;;;3.93;66.02
65756;BME280;69208;47.502;18.940;2023-04-27T00:21:59;98277.56;;;3.89;66.38
65756;BME280;69208;47.502;18.940;2023-04-27T00:23:03;98275.78;;;3.95;66.22
65756;BME280;69208;47.502;18.940;2023-04-27T00:24:05;98274.47;;;3.92;65.63
65756;BME280;69208;47.502;18.940;2023-04-27T00:25:08;98274.03;;;4.00;66.18
65756;BME280;69208;47.502;18.940;2023-04-27T00:26:11;98270.47;;;4.06;66.34
65756;BME280;69208;47.502;18.940;2023-04-27T00:27:14;98272.63;;;4.20;66.12
65756;BME280;69208;47.502;18.940;2023-04-27T00:28:17;98276.47;;;4.12;65.25
65756;BME280;69208;47.502;18.940;2023-04-27T00:29:20;98276.97;;;4.09;65.78
65756;BME280;69208;47.502;18.940;2023-04-27T00:30:22;98265.50;;;4.05;64.62
65756;BME280;69208;47.502;18.940;2023-04-27T00:31:25;98268.09;;;4.05;65.17
65756;BME280;69208;47.502;18.940;2023-04-27T00:32:28;98271.72;;;4.04;64.72
65756;BME280;69208;47.502;18.940;2023-04-27T00:33:31;98275.38;;;4.08;65.15
65756;BME280;69208;47.502;18.940;2023-04-27T00:34:33;98273.34;;;4.10;65.14
65756;BME280;69208;47.502;18.940;2023-04-27T00:35:36;98260.16;;;4.17;64.88
65756;BME280;69208;47.502;18.940;2023-04-27T00:36:39;98265.66;;;4.20;65.48
65756;BME280;69208;47.502;18.940;2023-04-27T00:37:42;98266.25;;;4.32;65.41
65756;BME280;69208;47.502;18.940;2023-04-27T00:38:44;98267.00;;;4.28;65.04
65756;BME280;69208;47.502;18.940;2023-04-27T00:39:47;98263.34;;;4.24;65.63
65756;BME280;69208;47.502;18.940;2023-04-27T00:40:50;98268.53;;;4.24;64.51
65756;BME280;69208;47.502;18.940;2023-04-27T00:41:53;98266.16;;;4.17;65.69
65756;BME280;69208;47.502;18.940;2023-04-27T00:42:55;98264.72;;;4.04;65.66
65756;BME280;69208;47.502;18.940;2023-04-27T00:43:58;98268.59;;;4.02;65.42
65756;BME280;69208;47.502;18.940;2023-04-27T00:45:01;98273.28;;;4.05;66.16
65756;BME280;69208;47.502;18.940;2023-04-27T00:46:04;98267.69;;;4.18;66.03
65756;BME280;69208;47.502;18.940;2023-04-27T00:47:09;98274.50;;;4.24;65.26
65756;BME280;69208;47.502;18.940;2023-04-27T00:48:12;98265.88;;;4.19;65.85
65756;BME280;69208;47.502;18.940;2023-04-27T00:49:15;98261.97;;;4.16;65.51
65756;BME280;69208;47.502;18.940;2023-04-27T00:50:22;98263.72;;;4.05;66.23
65756;BME280;69208;47.502;18.940;2023-04-27T00:51:27;98265.81;;;4.08;66.40
65756;BME280;69208;47.502;18.940;2023-04-27T00:52:32;98266.50;;;3.99;67.12
65756;BME280;69208;47.502;18.940;2023-04-27T00:53:35;98260.12;;;4.12;66.32
65756;BME280;69208;47.502;18.940;2023-04-27T00:54:39;98261.47;;;4.14;65.73
65756;BME280;69208;47.502;18.940;2023-04-27T00:55:41;98258.59;;;4.16;65.62
65756;BME280;69208;47.502;18.940;2023-04-27T00:56:50;98260.88;;;4.07;65.67
65756;BME280;69208;47.502;18.940;2023-04-27T00:57:53;98262.56;;;3.96;66.29
65756;BME280;69208;47.502;18.940;2023-04-27T00:58:55;98259.81;;;4.03;65.78
65756;BME280;69208;47.502;18.940;2023-04-27T00:59:59;98266.97;;;3.96;65.72
65756;BME280;69208;47.502;18.940;2023-04-27T01:01:02;98261.81;;;3.96;66.03
65756;BME280;69208;47.502;18.940;2023-04-27T01:02:05;98263.19;;;4.03;66.02
65756;BME280;69208;47.502;18.940;2023-04-27T01:03:08;98266.16;;;3.90;65.68
65756;BME280;69208;47.502;18.940;2023-04-27T01:04:11;98264.81;;;3.82;66.75
65756;BME280;69208;47.502;18.940;2023-04-27T01:05:15;98258.03;;;3.81;65.31
65756;BME280;69208;47.502;18.940;2023-04-27T01:06:18;98266.56;;;3.77;65.34
65756;BME280;69208;47.502;18.940;2023-04-27T01:07:25;98265.03;;;3.81;65.90
65756;BME280;69208;47.502;18.940;2023-04-27T01:08:28;98258.94;;;3.65;65.37
65756;BME280;69208;47.502;18.940;2023-04-27T01:09:31;98258.38;;;3.63;65.23
65756;BME280;69208;47.502;18.940;2023-04-27T01:10:34;98265.00;;;3.76;65.29
65756;BME280;69208;47.502;18.940;2023-04-27T01:11:39;98264.41;;;3.69;65.53
65756;BME280;69208;47.502;18.940;2023-04-27T01:12:42;98257.06;;;3.60;65.63
65756;BME280;69208;47.502;18.940;2023-04-27T01:13:45;98261.59;;;3.75;64.89
65756;BME280;69208;47.502;18.940;2023-04-27T01:14:48;98259.03;;;3.75;64.70
65756;BME280;69208;47.502;18.940;2023-04-27T01:15:50;98262.69;;;3.79;64.14
65756;BME280;69208;47.502;18.940;2023-04-27T01:16:53;98265.44;;;3.68;65.75
65756;BME280;69208;47.502;18.940;2023-04-27T01:17:57;98262.59;;;3.69;65.15
65756;BME280;69208;47.502;18.940;2023-04-27T01:19:00;98270.34;;;3.64;66.20
65756;BME280;69208;47.502;18.940;2023-04-27T01:20:04;98262.59;;;3.69;65.94
65756;BME280;69208;47.502;18.940;2023-04-27T01:21:10;98268.75;;;3.63;65.80
65756;BME280;69208;47.502;18.940;2023-04-27T01:22:13;98262.22;;;3.82;66.08
65756;BME280;69208;47.502;18.940;2023-04-27T01:23:16;98263.22;;;3.81;65.66
65756;BME280;69208;47.502;18.940;2023-04-27T01:24:19;98267.69;;;3.86;65.83
65756;BME280;69208;47.502;18.940;2023-04-27T01:25:22;98264.25;;;3.80;65.50
65756;BME280;69208;47.502;18.940;2023-04-27T01:26:25;98274.47;;;3.92;66.01
65756;BME280;69208;47.502;18.940;2023-04-27T01:27:28;98267.88;;;3.79;65.11
65756;BME280;69208;47.502;18.940;2023-04-27T01:28:30;98268.81;;;3.68;66.21
65756;BME280;69208;47.502;18.940;2023-04-27T01:29:33;98268.25;;;3.66;66.78
65756;BME280;69208;47.502;18.940;2023-04-27T01:30:36;98266.50;;;3.72;66.20
65756;BME280;69208;47.502;18.940;2023-04-27T01:31:39;98269.94;;;3.77;65.75
65756;BME280;69208;47.502;18.940;2023-04-27T01:32:42;98268.88;;;3.78;66.22
65756;BME280;69208;47.502;18.940;2023-04-27T01:33:45;98272.44;;;3.67;65.75
65756;BME280;69208;47.502;18.940;2023-04-27T01:34:48;98268.16;;;3.56;66.79
65756;BME280;69208;47.502;18.940;2023-04-27T01:35:50;98266.41;;;3.61;66.70
65756;BME280;69208;47.502;18.940;2023-04-27T01:36:53;98273.56;;;3.76;66.23
65756;BME280;69208;47.502;18.940;2023-04-27T01:37:56;98271.75;;;3.55;66.93
65756;BME280;69208;47.502;18.940;2023-04-27T01:38:59;98274.06;;;3.51;66.36
65756;BME280;69208;47.502;18.940;2023-04-27T01:40:03;98275.16;;;3.55;66.62
65756;BME280;69208;47.502;18.940;2023-04-27T01:41:09;98275.19;;;3.60;66.73
65756;BME280;69208;47.502;18.940;2023-04-27T01:42:12;98281.50;;;3.70;66.83
65756;BME280;69208;47.502;18.940;2023-04-27T01:43:14;98281.34;;;3.54;67.28
65756;BME280;69208;47.502;18.940;2023-04-27T01:44:17;98277.84;;;3.65;66.81
65756;BME280;69208;47.502;18.940;2023-04-27T01:45:22;98278.31;;;3.62;65.60
65756;BME280;69208;47.502;18.940;2023-04-27T01:46:25;98272.13;;;3.63;66.03
65756;BME280;69208;47.502;18.940;2023-04-27T01:47:28;98277.50;;;3.57;65.84
65756;BME280;69208;47.502;18.940;2023-04-27T01:48:30;98281.69;;;3.63;65.75
65756;BME280;69208;47.502;18.940;2023-04-27T01:49:33;98279.78;;;3.53;65.99
65756;BME280;69208;47.502;18.940;2023-04-27T01:50:36;98277.75;;;3.55;66.23
65756;BME280;69208;47.502;18.940;2023-04-27T01:51:39;98278.28;;;3.57;65.62
65756;BME280;69208;47.502;18.940;2023-04-27T01:52:42;98279.00;;;3.53;66.45
65756;BME280;69208;47.502;18.940;2023-04-27T01:53:44;98279.31;;;3.56;66.31
65756;BME280;69208;47.502;18.940;2023-04-27T01:54:47;98283.22;;;3.59;65.81
65756;BME280;69208;47.502;18.940;2023-04-27T01:55:49;98281.47;;;3.64;65.44
65756;BME280;69208;47.502;18.940;2023-04-27T01:56:53;98278.37;;;3.68;65.42
65756;BME280;69208;47.502;18.940;2023-04-27T01:57:55;98291.69;;;3.76;65.74
65756;BME280;69208;47.502;18.940;2023-04-27T01:58:58;98278.87;;;3.64;66.23
65756;BME280;69208;47.502;18.940;2023-04-27T02:00:01;98288.84;;;3.78;65.66
65756;BME280;69208;47.502;18.940;2023-04-27T02:01:05;98284.19;;;3.53;65.84
65756;BME280;69208;47.502;18.940;2023-04-27T02:02:08;98285.53;;;3.55;66.37
65756;BME280;69208;47.502;18.940;2023-04-27T02:03:11;98289.31;;;3.48;65.80
65756;BME280;69208;47.502;18.940;2023-04-27T02:04:14;98289.78;;;3.45;66.46
65756;BME280;69208;47.502;18.940;2023-04-27T02:05:17;98284.69;;;3.50;66.83
65756;BME280;69208;47.502;18.940;2023-04-27T02:06:20;98278.47;;;3.51;66.85
65756;BME280;69208;47.502;18.940;2023-04-27T02:07:22;98289.19;;;3.59;66.91
65756;BME280;69208;47.502;18.940;2023-04-27T02:08:25;98282.59;;;3.52;66.81
65756;BME280;69208;47.502;18.940;2023-04-27T02:09:28;98281.47;;;3.42;66.58
65756;BME280;69208;47.502;18.940;2023-04-27T02:10:31;98284.97;;;3.53;67.14
65756;BME280;69208;47.502;18.940;2023-04-27T02:11:34;98281.34;;;3.54;65.81
65756;BME280;69208;47.502;18.940;2023-04-27T02:12:37;98288.03;;;3.50;65.80
65756;BME280;69208;47.502;18.940;2023-04-27T02:13:39;98289.25;;;3.42;66.92
65756;BME280;69208;47.502;18.940;2023-04-27T02:14:42;98288.28;;;3.49;66.65
65756;BME280;69208;47.502;18.940;2023-04-27T02:15:44;98286.72;;;3.48;67.34
65756;BME280;69208;47.502;18.940;2023-04-27T02:16:47;98279.22;;;3.46;67.06
65756;BME280;69208;47.502;18.940;2023-04-27T02:17:50;98283.41;;;3.52;66.65
65756;BME280;69208;47.502;18.940;2023-04-27T02:18:53;98282.31;;;3.48;66.22
65756;BME280;69208;47.502;18.940;2023-04-27T02:19:56;98290.28;;;3.41;65.73
65756;BME280;69208;47.502;18.940;2023-04-27T02:20:59;98283.53;;;3.40;65.88
65756;BME280;69208;47.502;18.940;2023-04-27T02:22:02;98283.06;;;3.44;66.56
65756;BME280;69208;47.502;18.940;2023-04-27T02:23:05;98284.31;;;3.41;67.41
65756;BME280;69208;47.502;18.940;2023-04-27T02:24:08;98288.75;;;3.46;67.42
65756;BME280;69208;47.502;18.940;2023-04-27T02:25:11;98289.31;;;3.48;67.68
65756;BME280;69208;47.502;18.940;2023-04-27T02:26:16;98281.41;;;3.59;67.43
65756;BME280;69208;47.502;18.940;2023-04-27T02:27:20;98288.28;;;3.49;67.22
65756;BME280;69208;47.502;18.940;2023-04-27T02:28:24;98295.47;;;3.41;66.46
65756;BME280;69208;47.502;18.940;2023-04-27T02:29:30;98290.28;;;3.41;66.40
65756;BME280;69208;47.502;18.940;2023-04-27T02:30:33;98302.94;;;3.38;67.32
65756;BME280;69208;47.502;18.940;2023-04-27T02:31:38;98295.88;;;3.33;67.92
65756;BME280;69208;47.502;18.940;2023-04-27T02:32:41;98295.81;;;3.28;67.93
65756;BME280;69208;47.502;18.940;2023-04-27T02:33:44;98297.38;;;3.29;67.82
65756;BME280;69208;47.502;18.940;2023-04-27T02:34:47;98304.84;;;3.26;67.13
65756;BME280;69208;47.502;18.940;2023-04-27T02:35:49;98299.72;;;3.31;67.22
65756;BME280;69208;47.502;18.940;2023-04-27T02:36:53;98302.88;;;3.33;67.07
65756;BME280;69208;47.502;18.940;2023-04-27T02:37:55;98298.84;;;3.20;66.99
65756;BME280;69208;47.502;18.940;2023-04-27T02:38:58;98296.88;;;3.10;68.56
65756;BME280;69208;47.502;18.940;2023-04-27T02:40:01;98302.06;;;3.10;67.85
65756;BME280;69208;47.502;18.940;2023-04-27T02:41:05;98307.81;;;3.34;67.49
65756;BME280;69208;47.502;18.940;2023-04-27T02:42:09;98309.84;;;3.32;67.03
65756;BME280;69208;47.502;18.940;2023-04-27T02:43:11;98311.81;;;3.03;67.86
65756;BME280;69208;47.502;18.940;2023-04-27T02:44:14;98301.91;;;3.17;67.70
65756;BME280;69208;47.502;18.940;2023-04-27T02:45:17;98312.97;;;3.12;67.39
65756;BME280;69208;47.502;18.940;2023-04-27T02:46:19;98311.41;;;3.11;67.01
65756;BME280;69208;47.502;18.940;2023-04-27T02:47:22;98311.44;;;3.16;67.01
65756;BME280;69208;47.502;18.940;2023-04-27T02:48:25;98313.50;;;3.14;67.01
65756;BME280;69208;47.502;18.940;2023-04-27T02:49:29;98315.75;;;3.28;66.66
65756;BME280;69208;47.502;18.940;2023-04-27T02:50:32;98320.62;;;3.24;66.48
65756;BME280;69208;47.502;18.940;2023-04-27T02:51:34;98316.09;;;3.14;66.90
65756;BME280;69208;47.502;18.940;2023-04-27T02:52:37;98310.63;;;3.11;66.97
65756;BME280;69208;47.502;18.940;2023-04-27T02:53:40;98320.53;;;2.97;67.47
65756;BME280;69208;47.502;18.940;2023-04-27T02:54:43;98318.16;;;2.95;67.81
65756;BME280;69208;47.502;18.940;2023-04-27T02:55:46;98318.31;;;3.06;68.40
65756;BME280;69208;47.502;18.940;2023-04-27T02:56:49;98318.00;;;3.02;68.50
65756;BME280;69208;47.502;18.940;2023-04-27T02:57:52;98325.78;;;3.02;68.65
65756;BME280;69208;47.502;18.940;2023-04-27T02:58:55;98320.06;;;3.00;69.62
65756;BME280;69208;47.502;18.940;2023-04-27T02:59:58;98317.34;;;2.90;69.94
65756;BME280;69208;47.502;18.940;2023-04-27T03:01:01;98320.84;;;2.84;69.89
65756;BME280;69208;47.502;18.940;2023-04-27T03:02:04;98319.28;;;2.83;70.62
65756;BME280;69208;47.502;18.940;2023-04-27T03:03:07;98322.28;;;2.74;70.86
65756;BME280;69208;47.502;18.940;2023-04-27T03:04:10;98318.97;;;2.79;70.82
65756;BME280;69208;47.502;18.940;2023-04-27T03:05:15;98320.47;;;2.75;70.57
65756;BME280;69208;47.502;18.940;2023-04-27T03:06:18;98322.66;;;2.83;70.38
65756;BME280;69208;47.502;18.940;2023-04-27T03:07:21;98321.88;;;2.66;71.08
65756;BME280;69208;47.502;18.940;2023-04-27T03:08:25;98326.06;;;2.67;71.44
65756;BME280;69208;47.502;18.940;2023-04-27T03:09:27;98327.13;;;2.54;71.54
65756;BME280;69208;47.502;18.940;2023-04-27T03:10:30;98326.75;;;2.62;72.07
65756;BME280;69208;47.502;18.940;2023-04-27T03:11:33;98331.16;;;2.62;72.29
65756;BME280;69208;47.502;18.940;2023-04-27T03:12:38;98331.31;;;2.55;72.57
65756;BME280;69208;47.502;18.940;2023-04-27T03:13:41;98323.16;;;2.46;72.61
65756;BME280;69208;47.502;18.940;2023-04-27T03:14:44;98327.75;;;2.44;72.68
65756;BME280;69208;47.502;18.940;2023-04-27T03:15:47;98324.16;;;2.45;72.19
65756;BME280;69208;47.502;18.940;2023-04-27T03:16:49;98333.72;;;2.45;72.23
65756;BME280;69208;47.502;18.940;2023-04-27T03:17:52;98333.81;;;2.50;71.99
65756;BME280;69208;47.502;18.940;2023-04-27T03:18:55;98330.75;;;2.53;71.82
65756;BME280;69208;47.502;18.940;2023-04-27T03:19:59;98327.69;;;2.56;71.86
65756;BME280;69208;47.502;18.940;2023-04-27T03:21:08;98329.34;;;2.62;72.10
65756;BME280;69208;47.502;18.940;2023-04-27T03:22:12;98330.66;;;2.65;72.59
65756;BME280;69208;47.502;18.940;2023-04-27T03:23:15;98332.87;;;2.56;72.87
65756;BME280;69208;47.502;18.940;2023-04-27T03:24:18;98333.25;;;2.65;72.70
65756;BME280;69208;47.502;18.940;2023-04-27T03:25:20;98334.28;;;2.64;72.89
65756;BME280;69208;47.502;18.940;2023-04-27T03:26:24;98327.91;;;2.71;72.73
65756;BME280;69208;47.502;18.940;2023-04-27T03:27:28;98325.56;;;2.53;72.97
65756;BME280;69208;47.502;18.940;2023-04-27T03:28:31;98328.25;;;2.41;73.10
65756;BME280;69208;47.502;18.940;2023-04-27T03:29:34;98328.62;;;2.33;73.49
65756;BME280;69208;47.502;18.940;2023-04-27T03:30:38;98330.25;;;2.39;73.22
65756;BME280;69208;47.502;18.940;2023-04-27T03:31:42;98329.09;;;2.47;73.02
65756;BME280;69208;47.502;18.940;2023-04-27T03:32:45;98339.81;;;2.39;73.30
65756;BME280;69208;47.502;18.940;2023-04-27T03:33:49;98338.87;;;2.45;73.19
65756;BME280;69208;47.502;18.940;2023-04-27T03:34:52;98337.25;;;2.56;72.86
65756;BME280;69208;47.502;18.940;2023-04-27T03:35:55;98338.59;;;2.58;72.39
65756;BME280;69208;47.502;18.940;2023-04-27T03:36:59;98343.91;;;2.35;73.13
65756;BME280;69208;47.502;18.940;2023-04-27T03:38:02;98340.13;;;2.25;73.55
65756;BME280;69208;47.502;18.940;2023-04-27T03:39:04;98341.75;;;2.15;73.80
65756;BME280;69208;47.502;18.940;2023-04-27T03:40:08;98346.41;;;2.30;73.45
65756;BME280;69208;47.502;18.940;2023-04-27T03:41:11;98342.25;;;2.28;73.87
65756;BME280;69208;47.502;18.940;2023-04-27T03:42:14;98342.03;;;2.47;73.50
65756;BME280;69208;47.502;18.940;2023-04-27T03:43:18;98341.25;;;2.46;73.54
65756;BME280;69208;47.502;18.940;2023-04-27T03:44:21;98346.66;;;2.45;73.34
65756;BME280;69208;47.502;18.940;2023-04-27T03:45:24;98354.09;;;2.41;73.59
65756;BME280;69208;47.502;18.940;2023-04-27T03:46:26;98347.28;;;2.35;73.46
65756;BME280;69208;47.502;18.940;2023-04-27T03:47:29;98349.84;;;2.35;73.43
65756;BME280;69208;47.502;18.940;2023-04-27T03:48:32;98351.81;;;2.28;73.71
65756;BME280;69208;47.502;18.940;2023-04-27T03:49:35;98351.72;;;2.23;74.04
65756;BME280;69208;47.502;18.940;2023-04-27T03:50:38;98348.28;;;2.34;73.97
65756;BME280;69208;47.502;18.940;2023-04-27T03:51:41;98349.28;;;2.33;74.19
65756;BME280;69208;47.502;18.940;2023-04-27T03:52:44;98351.41;;;2.36;74.21
65756;BME280;69208;47.502;18.940;2023-04-27T03:53:47;98354.09;;;2.41;74.30
65756;BME280;69208;47.502;18.940;2023-04-27T03:54:50;98356.28;;;2.49;74.22
65756;BME280;69208;47.502;18.940;2023-04-27T03:55:52;98359.44;;;2.52;74.36
65756;BME280;69208;47.502;18.940;2023-04-27T03:56:55;98352.94;;;2.49;74.71
65756;BME280;69208;47.502;18.940;2023-04-27T03:57:58;98358.16;;;2.37;75.06
65756;BME280;69208;47.502;18.940;2023-04-27T03:59:02;98358.75;;;2.27;74.90
65756;BME280;69208;47.502;18.940;2023-04-27T04:00:05;98354.47;;;2.33;74.66
65756;BME280;69208;47.502;18.940;2023-04-27T04:01:13;98356.84;;;2.35;74.83
65756;BME280;69208;47.502;18.940;2023-04-27T04:02:16;98362.22;;;2.33;74.72
65756;BME280;69208;47.502;18.940;2023-04-27T04:03:19;98355.75;;;2.47;74.48
65756;BME280;69208;47.502;18.940;2023-04-27T04:04:22;98356.78;;;2.46;74.21
65756;BME280;69208;47.502;18.940;2023-04-27T04:05:25;98360.19;;;2.35;74.41
65756;BME280;69208;47.502;18.940;2023-04-27T04:06:28;98364.28;;;2.31;74.31
65756;BME280;69208;47.502;18.940;2023-04-27T04:07:31;98361.19;;;2.17;74.58
65756;BME280;69208;47.502;18.940;2023-04-27T04:08:34;98358.12;;;2.20;74.93
65756;BME280;69208;47.502;18.940;2023-04-27T04:09:37;98369.91;;;2.45;74.73
65756;BME280;69208;47.502;18.940;2023-04-27T04:10:40;98371.72;;;2.44;74.92
65756;BME280;69208;47.502;18.940;2023-04-27T04:11:43;98364.59;;;2.35;75.33
65756;BME280;69208;47.502;18.940;2023-04-27T04:12:46;98373.12;;;2.35;74.47
65756;BME280;69208;47.502;18.940;2023-04-27T04:13:48;98369.69;;;2.46;74.50
65756;BME280;69208;47.502;18.940;2023-04-27T04:15:02;98368.63;;;2.31;74.65
65756;BME280;69208;47.502;18.940;2023-04-27T04:16:07;98371.88;;;2.38;74.49
65756;BME280;69208;47.502;18.940;2023-04-27T04:17:10;98375.44;;;2.48;74.62
65756;BME280;69208;47.502;18.940;2023-04-27T04:18:13;98376.44;;;2.47;74.77
65756;BME280;69208;47.502;18.940;2023-04-27T04:19:15;98376.50;;;2.53;74.79
65756;BME280;69208;47.502;18.940;2023-04-27T04:20:18;98383.19;;;2.48;75.04
65756;BME280;69208;47.502;18.940;2023-04-27T04:21:21;98378.75;;;2.32;75.45
65756;BME280;69208;47.502;18.940;2023-04-27T04:22:24;98378.66;;;2.27;75.40
65756;BME280;69208;47.502;18.940;2023-04-27T04:23:27;98381.41;;;2.20;75.40
65756;BME280;69208;47.502;18.940;2023-04-27T04:24:30;98378.50;;;2.34;75.12
65756;BME280;69208;47.502;18.940;2023-04-27T04:25:32;98382.63;;;2.46;74.79
65756;BME280;69208;47.502;18.940;2023-04-27T04:26:35;98379.94;;;2.41;74.75
65756;BME280;69208;47.502;18.940;2023-04-27T04:27:40;98379.53;;;2.33;75.06
65756;BME280;69208;47.502;18.940;2023-04-27T04:28:43;98382.44;;;2.36;75.20
65756;BME280;69208;47.502;18.940;2023-04-27T04:29:47;98386.00;;;2.47;74.89
65756;BME280;69208;47.502;18.940;2023-04-27T04:30:50;98383.69;;;2.34;74.54
65756;BME280;69208;47.502;18.940;2023-04-27T04:31:56;98379.78;;;2.31;74.52
65756;BME280;69208;47.502;18.940;2023-04-27T04:32:58;98391.69;;;2.32;74.94
65756;BME280;69208;47.502;18.940;2023-04-27T04:34:01;98378.84;;;2.37;74.76
65756;BME280;69208;47.502;18.940;2023-04-27T04:35:05;98386.81;;;2.36;74.94
65756;BME280;69208;47.502;18.940;2023-04-27T04:36:08;98388.34;;;2.48;74.33
65756;BME280;69208;47.502;18.940;2023-04-27T04:37:12;98391.16;;;2.47;74.45
65756;BME280;69208;47.502;18.940;2023-04-27T04:38:15;98391.94;;;2.47;74.92
65756;BME280;69208;47.502;18.940;2023-04-27T04:39:18;98389.50;;;2.41;74.76
65756;BME280;69208;47.502;18.940;2023-04-27T04:40:24;98388.78;;;2.45;74.69
65756;BME280;69208;47.502;18.940;2023-04-27T04:41:27;98389.28;;;2.59;73.47
65756;BME280;69208;47.502;18.940;2023-04-27T04:42:30;98393.84;;;2.52;73.45
65756;BME280;69208;47.502;18.940;2023-04-27T04:43:34;98392.25;;;2.51;74.18
65756;BME280;69208;47.502;18.940;2023-04-27T04:44:37;98396.50;;;2.57;74.13
65756;BME280;69208;47.502;18.940;2023-04-27T04:45:40;98394.56;;;2.81;72.98
65756;BME280;69208;47.502;18.940;2023-04-27T04:46:43;98392.06;;;2.69;72.93
65756;BME280;69208;47.502;18.940;2023-04-27T04:47:48;98397.81;;;2.60;72.88
65756;BME280;69208;47.502;18.940;2023-04-27T04:48:51;98396.66;;;2.67;72.63
65756;BME280;69208;47.502;18.940;2023-04-27T04:49:57;98398.28;;;2.57;73.16
65756;BME280;69208;47.502;18.940;2023-04-27T04:50:59;98395.72;;;2.57;73.36
65756;BME280;69208;47.502;18.940;2023-04-27T04:52:02;98396.28;;;2.76;72.22
65756;BME280;69208;47.502;18.940;2023-04-27T04:53:05;98402.38;;;2.86;71.36
65756;BME280;69208;47.502;18.940;2023-04-27T04:54:08;98390.56;;;2.90;70.96
65756;BME280;69208;47.502;18.940;2023-04-27T04:55:11;98391.56;;;2.89;71.61
65756;BME280;69208;47.502;18.940;2023-04-27T04:56:14;98396.59;;;2.96;72.22
65756;BME280;69208;47.502;18.940;2023-04-27T04:57:18;98396.91;;;3.00;71.19
65756;BME280;69208;47.502;18.940;2023-04-27T04:58:21;98394.94;;;3.07;72.18
65756;BME280;69208;47.502;18.940;2023-04-27T04:59:23;98394.00;;;2.96;72.53
65756;BME280;69208;47.502;18.940;2023-04-27T05:00:27;98398.72;;;2.99;72.03
65756;BME280;69208;47.502;18.940;2023-04-27T05:01:30;98404.69;;;3.00;71.97
65756;BME280;69208;47.502;18.940;2023-04-27T05:02:32;98397.78;;;3.05;70.58
65756;BME280;69208;47.502;18.940;2023-04-27T05:03:35;98401.84;;;3.01;70.80
65756;BME280;69208;47.502;18.940;2023-04-27T05:04:38;98400.09;;;3.07;70.43
65756;BME280;69208;47.502;18.940;2023-04-27T05:05:41;98403.09;;;3.15;69.61
65756;BME280;69208;47.502;18.940;2023-04-27T05:06:44;98398.38;;;3.29;69.52
65756;BME280;69208;47.502;18.940;2023-04-27T05:07:47;98400.78;;;3.36;69.84
65756;BME280;69208;47.502;18.940;2023-04-27T05:08:50;98404.53;;;3.45;69.60
65756;BME280;69208;47.502;18.940;2023-04-27T05:09:53;98405.16;;;3.52;68.62
65756;BME280;69208;47.502;18.940;2023-04-27T05:10:56;98404.12;;;3.53;68.87
65756;BME280;69208;47.502;18.940;2023-04-27T05:12:00;98404.91;;;3.54;68.19
65756;BME280;69208;47.502;18.940;2023-04-27T05:13:03;98400.78;;;3.58;68.94
65756;BME280;69208;47.502;18.940;2023-04-27T05:14:08;98407.37;;;3.65;67.79
65756;BME280;69208;47.502;18.940;2023-04-27T05:15:11;98406.41;;;3.72;68.83
65756;BME280;69208;47.502;18.940;2023-04-27T05:16:14;98411.19;;;3.80;67.83
65756;BME280;69208;47.502;18.940;2023-04-27T05:17:17;98409.50;;;3.91;68.47
65756;BME280;69208;47.502;18.940;2023-04-27T05:18:19;98412.50;;;4.04;67.15
65756;BME280;69208;47.502;18.940;2023-04-27T05:19:22;98416.97;;;4.09;66.95
65756;BME280;69208;47.502;18.940;2023-04-27T05:20:26;98418.81;;;4.14;66.93
65756;BME280;69208;47.502;18.940;2023-04-27T05:21:29;98420.47;;;4.25;66.73
65756;BME280;69208;47.502;18.940;2023-04-27T05:22:33;98414.59;;;4.34;64.70
65756;BME280;69208;47.502;18.940;2023-04-27T05:23:36;98417.31;;;4.45;64.60
65756;BME280;69208;47.502;18.940;2023-04-27T05:24:38;98419.75;;;4.56;64.84
65756;BME280;69208;47.502;18.940;2023-04-27T05:25:41;98420.63;;;4.67;64.46
65756;BME280;69208;47.502;18.940;2023-04-27T05:26:44;98427.66;;;4.72;62.29
65756;BME280;69208;47.502;18.940;2023-04-27T05:27:47;98426.19;;;4.81;63.49
65756;BME280;69208;47.502;18.940;2023-04-27T05:28:50;98423.63;;;4.86;62.12
65756;BME280;69208;47.502;18.940;2023-04-27T05:29:53;98423.22;;;4.99;62.61
65756;BME280;69208;47.502;18.940;2023-04-27T05:30:55;98428.50;;;5.10;62.44
65756;BME280;69208;47.502;18.940;2023-04-27T05:31:58;98427.00;;;5.19;61.13
65756;BME280;69208;47.502;18.940;2023-04-27T05:33:02;98425.22;;;5.24;60.78
65756;BME280;69208;47.502;18.940;2023-04-27T05:34:05;98424.50;;;5.34;61.32
65756;BME280;69208;47.502;18.940;2023-04-27T05:35:09;98418.81;;;5.42;60.58